createdAt,value
2019-01-15T00:00:09.002Z,20.70
2019-01-15T00:00:42.521Z,20.70
2019-01-15T00:01:15.640Z,20.45
2019-01-15T00:01:48.822Z,20.50
2019-01-15T00:02:22.035Z,20.57
2019-01-15T00:02:55.240Z,20.65
2019-01-15T00:03:28.553Z,20.40
2019-01-15T00:04:01.754Z,20.40
2019-01-15T00:04:34.887Z,20.50
2019-01-15T00:05:08.025Z,20.62
2019-01-15T00:05:41.074Z,20.60
2019-01-15T00:06:14.222Z,20.60
2019-01-15T00:06:47.293Z,20.70
2019-01-15T00:07:20.373Z,20.62
2019-01-15T00:07:53.566Z,20.30
2019-01-15T00:08:26.664Z,21.25
2019-01-15T00:09:00.137Z,21.07
2019-01-15T00:09:34.339Z,20.60
2019-01-15T00:10:07.689Z,20.60
2019-01-15T00:10:40.904Z,20.57
2019-01-15T00:11:14.095Z,20.70
2019-01-15T00:11:47.162Z,20.48
2019-01-15T00:12:20.315Z,20.40
2019-01-15T00:12:53.421Z,20.43
2019-01-15T00:13:26.600Z,20.70
2019-01-15T00:13:59.691Z,20.40
2019-01-15T00:14:32.800Z,20.30
2019-01-15T00:15:06.152Z,20.60
2019-01-15T00:15:39.392Z,20.57
2019-01-15T00:16:12.359Z,20.48
2019-01-15T00:16:45.482Z,20.60
2019-01-15T00:17:18.609Z,20.60
2019-01-15T00:17:51.723Z,20.32
2019-01-15T00:18:24.831Z,20.90
2019-01-15T00:18:57.904Z,20.43
2019-01-15T00:19:31.100Z,20.40
2019-01-15T00:20:05.739Z,20.40
2019-01-15T00:20:39.840Z,20.50
2019-01-15T00:21:12.960Z,20.40
2019-01-15T00:21:46.164Z,20.75
2019-01-15T00:22:19.211Z,21.45
2019-01-15T00:22:53.342Z,20.57
2019-01-15T00:23:26.478Z,20.32
2019-01-15T00:23:59.770Z,20.52
2019-01-15T00:24:32.632Z,20.72
2019-01-15T00:25:06.930Z,20.80
2019-01-15T00:25:40.042Z,20.45
2019-01-15T00:26:14.122Z,20.30
2019-01-15T00:26:47.172Z,20.40
2019-01-15T00:27:20.363Z,20.60
2019-01-15T00:27:53.542Z,20.50
2019-01-15T00:28:26.719Z,20.65
2019-01-15T00:28:59.802Z,20.30
2019-01-15T00:29:33.974Z,20.20
2019-01-15T00:30:09.596Z,20.85
2019-01-15T00:30:42.635Z,20.40
2019-01-15T00:31:15.610Z,20.52
2019-01-15T00:31:48.830Z,20.62
2019-01-15T00:32:21.930Z,20.25
2019-01-15T00:32:55.105Z,20.60
2019-01-15T00:33:28.309Z,20.40
2019-01-15T00:34:01.434Z,20.15
2019-01-15T00:34:34.421Z,20.23
2019-01-15T00:35:09.056Z,20.30
2019-01-15T00:35:42.002Z,20.82
2019-01-15T00:36:15.204Z,20.30
2019-01-15T00:36:48.181Z,20.40
2019-01-15T00:37:21.382Z,20.60
2019-01-15T00:37:57.127Z,20.80
2019-01-15T00:38:30.114Z,20.30
2019-01-15T00:39:06.558Z,20.77
2019-01-15T00:39:39.597Z,20.50
2019-01-15T00:40:15.868Z,20.30
2019-01-15T00:40:49.035Z,20.70
2019-01-15T00:41:22.052Z,20.32
2019-01-15T00:41:55.211Z,20.85
2019-01-15T00:42:28.094Z,20.70
2019-01-15T00:43:01.256Z,20.40
2019-01-15T00:43:34.258Z,20.55
2019-01-15T00:44:07.372Z,21.23
2019-01-15T00:44:40.458Z,20.80
2019-01-15T00:45:13.930Z,20.80
2019-01-15T00:45:46.940Z,20.68
2019-01-15T00:46:19.888Z,20.30
2019-01-15T00:46:54.147Z,20.32
2019-01-15T00:47:27.262Z,20.57
2019-01-15T00:48:00.391Z,20.72
2019-01-15T00:48:33.618Z,20.45
2019-01-15T00:49:06.735Z,20.20
2019-01-15T00:49:39.786Z,20.17
2019-01-15T00:50:14.265Z,20.55
2019-01-15T00:50:47.477Z,20.23
2019-01-15T00:51:20.368Z,20.55
2019-01-15T00:51:53.456Z,20.10
2019-01-15T00:52:26.470Z,20.30
2019-01-15T00:52:59.620Z,20.57
2019-01-15T00:53:34.236Z,20.30
2019-01-15T00:54:07.282Z,21.00
2019-01-15T00:54:40.284Z,20.75
2019-01-15T00:55:13.502Z,20.30
2019-01-15T00:55:46.590Z,20.60
2019-01-15T00:56:19.753Z,20.62
2019-01-15T00:56:53.210Z,20.70
2019-01-15T00:57:26.379Z,20.40
2019-01-15T00:58:00.710Z,20.40
2019-01-15T00:58:33.891Z,20.70
2019-01-15T00:59:07.262Z,21.23
2019-01-15T00:59:40.353Z,20.70
2019-01-15T01:00:17.941Z,20.45
2019-01-15T01:00:50.999Z,20.55
2019-01-15T01:01:24.116Z,20.92
2019-01-15T01:01:57.086Z,20.52
2019-01-15T01:02:30.236Z,20.27
2019-01-15T01:03:04.223Z,20.77
2019-01-15T01:03:37.313Z,20.68
2019-01-15T01:04:10.532Z,20.50
2019-01-15T01:04:43.518Z,20.77
2019-01-15T01:05:17.064Z,20.90
2019-01-15T01:05:58.222Z,20.80
2019-01-15T01:06:31.526Z,20.50
2019-01-15T01:07:05.470Z,20.27
2019-01-15T01:07:38.633Z,20.48
2019-01-15T01:08:11.630Z,20.40
2019-01-15T01:08:44.743Z,20.40
2019-01-15T01:09:20.128Z,20.35
2019-01-15T01:09:53.322Z,20.70
2019-01-15T01:10:26.502Z,20.55
2019-01-15T01:10:59.659Z,20.50
2019-01-15T01:11:33.273Z,20.60
2019-01-15T01:12:06.488Z,20.30
2019-01-15T01:12:39.510Z,20.57
2019-01-15T01:13:12.465Z,20.40
2019-01-15T01:13:45.931Z,20.37
2019-01-15T01:14:18.950Z,20.80
2019-01-15T01:14:51.977Z,20.68
2019-01-15T01:15:25.054Z,20.70
2019-01-15T01:15:58.051Z,20.50
2019-01-15T01:16:31.216Z,20.55
2019-01-15T01:17:04.308Z,20.50
2019-01-15T01:17:37.491Z,20.55
2019-01-15T01:18:10.483Z,20.65
2019-01-15T01:18:43.695Z,20.27
2019-01-15T01:19:16.713Z,20.57
2019-01-15T01:19:49.571Z,20.48
2019-01-15T01:20:22.840Z,20.10
2019-01-15T01:20:55.916Z,20.50
2019-01-15T01:21:28.902Z,20.55
2019-01-15T01:22:02.107Z,20.40
2019-01-15T01:22:35.104Z,20.40
2019-01-15T01:23:08.273Z,20.30
2019-01-15T01:23:41.287Z,20.20
2019-01-15T01:24:14.322Z,20.32
2019-01-15T01:24:47.465Z,20.23
2019-01-15T01:25:20.531Z,20.30
2019-01-15T01:25:53.579Z,20.50
2019-01-15T01:26:26.620Z,20.40
2019-01-15T01:26:59.723Z,20.75
2019-01-15T01:27:32.918Z,20.52
2019-01-15T01:28:06.060Z,20.52
2019-01-15T01:28:39.338Z,20.20
2019-01-15T01:29:12.553Z,20.50
2019-01-15T01:29:45.726Z,20.65
2019-01-15T01:30:21.595Z,20.50
2019-01-15T01:30:54.623Z,21.00
2019-01-15T01:31:28.324Z,20.68
2019-01-15T01:32:01.522Z,20.62
2019-01-15T01:32:34.705Z,20.50
2019-01-15T01:33:07.789Z,20.57
2019-01-15T01:33:40.892Z,20.92
2019-01-15T01:34:14.053Z,20.60
2019-01-15T01:34:47.559Z,20.95
2019-01-15T01:35:20.626Z,20.55
2019-01-15T01:35:53.577Z,20.80
2019-01-15T01:36:26.757Z,20.60
2019-01-15T01:36:59.933Z,20.43
2019-01-15T01:37:33.049Z,20.65
2019-01-15T01:38:06.125Z,20.45
2019-01-15T01:38:39.089Z,20.70
2019-01-15T01:39:13.836Z,20.75
2019-01-15T01:39:46.969Z,20.60
2019-01-15T01:40:20.481Z,20.88
2019-01-15T01:40:53.556Z,20.55
2019-01-15T01:41:26.431Z,20.80
2019-01-15T01:41:59.709Z,20.70
2019-01-15T01:42:32.863Z,20.40
2019-01-15T01:43:07.628Z,20.70
2019-01-15T01:43:40.635Z,20.50
2019-01-15T01:44:15.273Z,20.90
2019-01-15T01:44:48.465Z,20.68
2019-01-15T01:45:23.102Z,20.60
2019-01-15T01:45:56.187Z,20.68
2019-01-15T01:46:29.302Z,20.70
2019-01-15T01:47:03.700Z,20.50
2019-01-15T01:47:36.903Z,20.77
2019-01-15T01:48:11.159Z,20.50
2019-01-15T01:48:44.221Z,20.70
2019-01-15T01:49:17.376Z,20.60
2019-01-15T01:49:50.417Z,20.55
2019-01-15T01:50:23.525Z,20.70
2019-01-15T01:50:56.545Z,20.82
2019-01-15T01:51:29.517Z,20.80
2019-01-15T01:52:02.790Z,20.72
2019-01-15T01:52:35.927Z,20.75
2019-01-15T01:53:08.923Z,21.00
2019-01-15T01:53:42.004Z,20.70
2019-01-15T01:54:15.186Z,20.60
2019-01-15T01:54:48.457Z,20.92
2019-01-15T01:55:21.397Z,20.72
2019-01-15T01:55:54.590Z,20.90
2019-01-15T01:56:27.675Z,20.88
2019-01-15T01:57:00.645Z,21.25
2019-01-15T01:57:33.611Z,21.20
2019-01-15T01:58:06.745Z,21.12
2019-01-15T01:58:39.891Z,20.85
2019-01-15T01:59:13.047Z,21.60
2019-01-15T01:59:47.627Z,21.50
2019-01-15T02:00:21.139Z,21.50
2019-01-15T02:00:54.231Z,21.45
2019-01-15T02:01:27.201Z,21.50
2019-01-15T02:02:00.243Z,21.57
2019-01-15T02:02:33.264Z,21.65
2019-01-15T02:03:06.431Z,22.27
2019-01-15T02:03:39.417Z,21.87
2019-01-15T02:04:12.574Z,21.90
2019-01-15T02:04:45.591Z,22.60
2019-01-15T02:05:18.874Z,22.50
2019-01-15T02:05:51.804Z,22.17
2019-01-15T02:06:24.992Z,22.60
2019-01-15T02:06:58.153Z,22.15
2019-01-15T02:07:31.181Z,22.00
2019-01-15T02:08:04.253Z,22.10
2019-01-15T02:08:37.393Z,22.93
2019-01-15T02:09:10.401Z,23.07
2019-01-15T02:09:43.581Z,22.58
2019-01-15T02:10:18.740Z,22.40
2019-01-15T02:10:52.773Z,22.62
2019-01-15T02:11:25.779Z,22.87
2019-01-15T02:11:58.949Z,22.42
2019-01-15T02:12:36.880Z,22.70
2019-01-15T02:13:06.995Z,22.85
2019-01-15T02:13:40.013Z,23.20
2019-01-15T02:14:13.752Z,23.32
2019-01-15T02:14:46.920Z,23.60
2019-01-15T02:15:23.006Z,23.02
2019-01-15T02:15:56.032Z,23.40
2019-01-15T02:16:29.189Z,23.80
2019-01-15T02:17:02.325Z,23.47
2019-01-15T02:17:37.305Z,23.55
2019-01-15T02:18:10.319Z,23.85
2019-01-15T02:18:43.433Z,23.42
2019-01-15T02:19:16.565Z,23.40
2019-01-15T02:19:49.611Z,23.87
2019-01-15T02:20:22.663Z,23.57
2019-01-15T02:20:55.687Z,23.73
2019-01-15T02:21:28.817Z,23.45
2019-01-15T02:22:01.969Z,23.70
2019-01-15T02:22:35.002Z,23.80
2019-01-15T02:23:08.091Z,23.60
2019-01-15T02:23:41.203Z,23.47
2019-01-15T02:24:14.165Z,23.80
2019-01-15T02:24:47.185Z,23.90
2019-01-15T02:25:20.371Z,23.62
2019-01-15T02:25:53.365Z,23.83
2019-01-15T02:26:26.402Z,23.75
2019-01-15T02:27:01.385Z,23.45
2019-01-15T02:27:35.695Z,23.57
2019-01-15T02:28:08.651Z,23.65
2019-01-15T02:28:41.700Z,23.20
2019-01-15T02:29:14.884Z,24.00
2019-01-15T02:29:47.835Z,24.12
2019-01-15T02:30:24.137Z,23.47
2019-01-15T02:30:57.116Z,23.55
2019-01-15T02:31:30.219Z,23.90
2019-01-15T02:32:03.347Z,23.52
2019-01-15T02:32:36.577Z,23.73
2019-01-15T02:33:09.669Z,24.00
2019-01-15T02:33:42.739Z,23.70
2019-01-15T02:34:16.021Z,23.95
2019-01-15T02:34:49.008Z,23.60
2019-01-15T02:35:22.239Z,23.60
2019-01-15T02:35:55.417Z,23.45
2019-01-15T02:36:28.390Z,23.90
2019-01-15T02:37:01.554Z,24.55
2019-01-15T02:37:34.695Z,23.77
2019-01-15T02:38:07.751Z,23.57
2019-01-15T02:38:40.826Z,23.57
2019-01-15T02:39:14.130Z,23.80
2019-01-15T02:39:47.197Z,23.83
2019-01-15T02:40:20.409Z,23.73
2019-01-15T02:40:53.606Z,24.57
2019-01-15T02:41:26.592Z,24.23
2019-01-15T02:41:59.787Z,23.95
2019-01-15T02:42:33.009Z,23.87
2019-01-15T02:43:06.173Z,24.18
2019-01-15T02:43:39.234Z,23.70
2019-01-15T02:44:12.418Z,23.87
2019-01-15T02:44:45.991Z,24.00
2019-01-15T02:45:20.648Z,24.10
2019-01-15T02:45:53.805Z,23.60
2019-01-15T02:46:26.964Z,23.57
2019-01-15T02:46:59.934Z,24.05
2019-01-15T02:47:33.067Z,24.05
2019-01-15T02:48:06.242Z,24.32
2019-01-15T02:48:39.259Z,24.10
2019-01-15T02:49:12.466Z,24.02
2019-01-15T02:49:45.624Z,24.90
2019-01-15T02:50:20.938Z,24.60
2019-01-15T02:50:54.038Z,24.45
2019-01-15T02:51:27.118Z,24.07
2019-01-15T02:52:00.172Z,24.70
2019-01-15T02:52:33.341Z,24.43
2019-01-15T02:53:06.544Z,24.40
2019-01-15T02:53:39.750Z,24.20
2019-01-15T02:54:12.718Z,24.35
2019-01-15T02:54:45.841Z,23.90
2019-01-15T02:55:18.922Z,24.37
2019-01-15T02:55:51.909Z,24.43
2019-01-15T02:56:26.846Z,24.70
2019-01-15T02:56:59.945Z,24.67
2019-01-15T02:57:33.022Z,24.72
2019-01-15T02:58:06.252Z,24.50
2019-01-15T02:58:39.302Z,24.60
2019-01-15T02:59:12.386Z,24.98
2019-01-15T02:59:45.402Z,25.17
2019-01-15T03:00:24.354Z,24.80
2019-01-15T03:00:57.491Z,25.15
2019-01-15T03:01:30.549Z,24.95
2019-01-15T03:02:03.889Z,25.32
2019-01-15T03:02:37.062Z,24.80
2019-01-15T03:03:10.216Z,25.17
2019-01-15T03:03:43.375Z,24.65
2019-01-15T03:04:16.454Z,25.55
2019-01-15T03:04:49.539Z,24.92
2019-01-15T03:05:22.774Z,25.72
2019-01-15T03:05:55.816Z,25.32
2019-01-15T03:06:28.981Z,25.45
2019-01-15T03:07:02.166Z,24.95
2019-01-15T03:07:35.244Z,25.12
2019-01-15T03:08:08.400Z,25.23
2019-01-15T03:08:41.498Z,24.95
2019-01-15T03:09:14.452Z,25.37
2019-01-15T03:09:47.498Z,25.23
2019-01-15T03:10:21.595Z,24.80
2019-01-15T03:10:54.700Z,24.70
2019-01-15T03:11:27.764Z,24.65
2019-01-15T03:12:00.922Z,24.98
2019-01-15T03:12:34.123Z,24.80
2019-01-15T03:13:07.152Z,24.82
2019-01-15T03:13:40.244Z,25.17
2019-01-15T03:14:13.317Z,25.10
2019-01-15T03:14:46.449Z,25.10
2019-01-15T03:15:20.459Z,24.43
2019-01-15T03:15:53.520Z,25.08
2019-01-15T03:16:26.614Z,24.70
2019-01-15T03:17:01.272Z,24.92
2019-01-15T03:17:36.196Z,24.67
2019-01-15T03:18:10.429Z,24.50
2019-01-15T03:18:43.622Z,23.87
2019-01-15T03:19:16.696Z,24.15
2019-01-15T03:19:49.914Z,24.20
2019-01-15T03:20:22.979Z,24.02
2019-01-15T03:20:56.052Z,24.65
2019-01-15T03:21:29.116Z,24.55
2019-01-15T03:22:02.158Z,24.02
2019-01-15T03:22:35.298Z,23.85
2019-01-15T03:23:08.394Z,24.07
2019-01-15T03:23:41.568Z,23.77
2019-01-15T03:24:14.681Z,23.98
2019-01-15T03:24:48.827Z,23.83
2019-01-15T03:25:21.931Z,23.87
2019-01-15T03:25:54.984Z,24.45
2019-01-15T03:26:27.960Z,24.05
2019-01-15T03:27:02.232Z,23.60
2019-01-15T03:27:35.416Z,24.10
2019-01-15T03:28:08.463Z,23.75
2019-01-15T03:28:41.511Z,24.05
2019-01-15T03:29:14.528Z,24.05
2019-01-15T03:29:47.637Z,23.77
2019-01-15T03:30:23.757Z,23.60
2019-01-15T03:30:56.794Z,23.60
2019-01-15T03:31:29.882Z,23.38
2019-01-15T03:32:03.036Z,23.10
2019-01-15T03:32:35.988Z,23.70
2019-01-15T03:33:08.932Z,23.67
2019-01-15T03:33:41.911Z,23.67
2019-01-15T03:34:15.010Z,24.20
2019-01-15T03:34:48.138Z,23.62
2019-01-15T03:35:21.474Z,24.20
2019-01-15T03:35:54.841Z,23.77
2019-01-15T03:36:27.785Z,23.55
2019-01-15T03:37:00.787Z,23.87
2019-01-15T03:37:33.986Z,24.10
2019-01-15T03:38:07.038Z,24.02
2019-01-15T03:38:40.109Z,24.37
2019-01-15T03:39:13.176Z,23.80
2019-01-15T03:39:46.230Z,24.43
2019-01-15T03:40:24.838Z,24.10
2019-01-15T03:40:57.806Z,24.18
2019-01-15T03:41:30.922Z,23.50
2019-01-15T03:42:04.646Z,23.67
2019-01-15T03:42:37.796Z,24.18
2019-01-15T03:43:10.987Z,24.10
2019-01-15T03:43:43.960Z,24.10
2019-01-15T03:44:16.923Z,23.50
2019-01-15T03:44:49.972Z,23.77
2019-01-15T03:45:23.150Z,23.73
2019-01-15T03:46:03.998Z,23.73
2019-01-15T03:46:31.206Z,23.87
2019-01-15T03:47:04.305Z,24.02
2019-01-15T03:47:37.312Z,24.12
2019-01-15T03:48:10.521Z,24.15
2019-01-15T03:48:44.638Z,23.50
2019-01-15T03:49:17.706Z,23.87
2019-01-15T03:49:50.619Z,24.07
2019-01-15T03:50:23.736Z,24.10
2019-01-15T03:50:56.735Z,23.80
2019-01-15T03:51:30.570Z,24.52
2019-01-15T03:52:03.807Z,24.20
2019-01-15T03:52:36.947Z,24.12
2019-01-15T03:53:09.965Z,23.75
2019-01-15T03:53:42.989Z,24.43
2019-01-15T03:54:16.003Z,23.50
2019-01-15T03:54:49.095Z,24.12
2019-01-15T03:55:22.206Z,23.87
2019-01-15T03:55:55.366Z,24.07
2019-01-15T03:56:28.264Z,23.50
2019-01-15T03:57:01.330Z,24.05
2019-01-15T03:57:34.473Z,23.65
2019-01-15T03:58:07.516Z,24.07
2019-01-15T03:58:40.636Z,23.70
2019-01-15T03:59:13.811Z,24.12
2019-01-15T03:59:46.829Z,24.05
2019-01-15T04:00:22.917Z,24.00
2019-01-15T04:00:55.914Z,23.50
2019-01-15T04:01:29.056Z,23.05
2019-01-15T04:02:02.272Z,23.32
2019-01-15T04:02:35.736Z,24.00
2019-01-15T04:03:08.849Z,23.62
2019-01-15T04:03:41.994Z,23.80
2019-01-15T04:04:15.130Z,23.85
2019-01-15T04:04:48.641Z,24.02
2019-01-15T04:05:21.844Z,24.05
2019-01-15T04:05:54.900Z,23.62
2019-01-15T04:06:28.004Z,23.35
2019-01-15T04:07:01.223Z,23.62
2019-01-15T04:07:34.302Z,24.12
2019-01-15T04:08:07.465Z,23.15
2019-01-15T04:08:40.558Z,23.57
2019-01-15T04:09:13.662Z,23.65
2019-01-15T04:09:47.172Z,24.23
2019-01-15T04:10:20.226Z,23.90
2019-01-15T04:10:53.337Z,23.92
2019-01-15T04:11:26.528Z,23.73
2019-01-15T04:11:59.668Z,24.10
2019-01-15T04:12:32.817Z,24.15
2019-01-15T04:13:11.209Z,23.62
2019-01-15T04:13:40.772Z,23.65
2019-01-15T04:14:13.779Z,23.67
2019-01-15T04:14:46.976Z,23.85
2019-01-15T04:15:19.998Z,23.80
2019-01-15T04:15:53.019Z,24.15
2019-01-15T04:16:26.044Z,24.05
2019-01-15T04:16:59.089Z,24.02
2019-01-15T04:17:32.154Z,23.80
2019-01-15T04:18:05.303Z,24.12
2019-01-15T04:18:38.426Z,23.70
2019-01-15T04:19:11.626Z,23.73
2019-01-15T04:19:44.629Z,24.15
2019-01-15T04:20:17.962Z,23.45
2019-01-15T04:20:51.132Z,23.57
2019-01-15T04:21:24.212Z,23.60
2019-01-15T04:21:57.281Z,23.32
2019-01-15T04:22:30.355Z,23.18
2019-01-15T04:23:03.488Z,23.75
2019-01-15T04:23:36.441Z,23.32
2019-01-15T04:24:09.487Z,23.42
2019-01-15T04:24:42.557Z,23.70
2019-01-15T04:25:15.621Z,23.45
2019-01-15T04:25:48.693Z,23.57
2019-01-15T04:26:21.788Z,23.22
2019-01-15T04:26:54.951Z,23.27
2019-01-15T04:27:29.202Z,23.42
2019-01-15T04:28:02.373Z,23.32
2019-01-15T04:28:35.487Z,23.30
2019-01-15T04:29:08.668Z,23.50
2019-01-15T04:29:41.701Z,23.30
2019-01-15T04:30:18.330Z,23.45
2019-01-15T04:30:51.350Z,23.55
2019-01-15T04:31:24.400Z,23.20
2019-01-15T04:31:57.395Z,23.12
2019-01-15T04:32:30.464Z,22.90
2019-01-15T04:33:03.565Z,23.80
2019-01-15T04:33:36.753Z,23.27
2019-01-15T04:34:09.744Z,23.20
2019-01-15T04:34:42.619Z,23.67
2019-01-15T04:35:15.682Z,23.52
2019-01-15T04:35:48.875Z,23.20
2019-01-15T04:36:23.642Z,22.90
2019-01-15T04:36:56.709Z,23.20
2019-01-15T04:37:29.763Z,23.30
2019-01-15T04:38:02.920Z,23.27
2019-01-15T04:38:36.000Z,23.45
2019-01-15T04:39:09.177Z,23.40
2019-01-15T04:39:42.417Z,23.40
2019-01-15T04:40:18.527Z,23.45
2019-01-15T04:40:51.859Z,23.67
2019-01-15T04:41:24.828Z,23.38
2019-01-15T04:41:57.910Z,23.02
2019-01-15T04:42:30.960Z,22.85
2019-01-15T04:43:04.033Z,23.32
2019-01-15T04:43:37.087Z,23.62
2019-01-15T04:44:10.089Z,23.40
2019-01-15T04:44:43.163Z,23.05
2019-01-15T04:45:18.857Z,23.83
2019-01-15T04:45:51.859Z,24.32
2019-01-15T04:46:25.077Z,23.90
2019-01-15T04:46:58.131Z,23.52
2019-01-15T04:47:31.397Z,23.98
2019-01-15T04:48:04.673Z,23.07
2019-01-15T04:48:37.711Z,23.55
2019-01-15T04:49:10.698Z,23.70
2019-01-15T04:49:44.955Z,23.60
2019-01-15T04:50:18.050Z,23.57
2019-01-15T04:50:51.265Z,23.35
2019-01-15T04:51:24.388Z,23.40
2019-01-15T04:51:57.541Z,23.98
2019-01-15T04:52:30.624Z,23.77
2019-01-15T04:53:03.665Z,23.47
2019-01-15T04:53:36.827Z,23.25
2019-01-15T04:54:09.896Z,23.70
2019-01-15T04:54:43.009Z,23.77
2019-01-15T04:55:16.161Z,23.67
2019-01-15T04:55:49.259Z,23.42
2019-01-15T04:56:23.453Z,23.62
2019-01-15T04:56:56.727Z,23.45
2019-01-15T04:57:29.733Z,24.00
2019-01-15T04:58:02.917Z,23.47
2019-01-15T04:58:35.902Z,23.55
2019-01-15T04:59:08.964Z,23.10
2019-01-15T04:59:43.153Z,23.30
2019-01-15T05:00:18.341Z,23.50
2019-01-15T05:00:51.311Z,23.62
2019-01-15T05:01:24.373Z,23.60
2019-01-15T05:01:57.457Z,23.25
2019-01-15T05:02:30.981Z,23.32
2019-01-15T05:03:07.071Z,23.65
2019-01-15T05:03:40.050Z,23.70
2019-01-15T05:04:13.028Z,23.70
2019-01-15T05:04:46.069Z,23.50
2019-01-15T05:05:19.311Z,23.77
2019-01-15T05:05:52.557Z,23.55
2019-01-15T05:06:25.541Z,23.85
2019-01-15T05:06:58.602Z,23.30
2019-01-15T05:07:31.799Z,23.90
2019-01-15T05:08:05.887Z,23.02
2019-01-15T05:08:39.043Z,23.32
2019-01-15T05:09:13.673Z,23.55
2019-01-15T05:09:47.255Z,23.80
2019-01-15T05:10:20.436Z,23.20
2019-01-15T05:10:53.531Z,23.40
2019-01-15T05:11:26.626Z,23.57
2019-01-15T05:12:00.530Z,23.32
2019-01-15T05:12:33.606Z,23.42
2019-01-15T05:13:06.683Z,23.22
2019-01-15T05:13:39.644Z,23.87
2019-01-15T05:14:12.601Z,23.80
2019-01-15T05:14:45.637Z,23.62
2019-01-15T05:15:18.708Z,23.65
2019-01-15T05:15:51.815Z,23.90
2019-01-15T05:16:24.926Z,23.70
2019-01-15T05:16:57.979Z,23.65
2019-01-15T05:17:31.196Z,23.50
2019-01-15T05:18:04.447Z,23.70
2019-01-15T05:18:37.527Z,23.27
2019-01-15T05:19:10.642Z,23.60
2019-01-15T05:19:43.710Z,23.70
2019-01-15T05:20:17.259Z,23.52
2019-01-15T05:20:52.107Z,23.50
2019-01-15T05:21:25.059Z,23.52
2019-01-15T05:21:58.128Z,23.70
2019-01-15T05:22:31.248Z,23.60
2019-01-15T05:23:04.375Z,23.42
2019-01-15T05:23:37.500Z,23.40
2019-01-15T05:24:10.547Z,23.87
2019-01-15T05:24:43.514Z,23.70
2019-01-15T05:25:18.477Z,23.30
2019-01-15T05:25:51.515Z,23.57
2019-01-15T05:26:24.655Z,23.62
2019-01-15T05:26:57.585Z,23.07
2019-01-15T05:27:30.550Z,23.38
2019-01-15T05:28:03.912Z,23.42
2019-01-15T05:28:36.956Z,23.83
2019-01-15T05:29:09.906Z,23.70
2019-01-15T05:29:42.930Z,23.70
2019-01-15T05:30:25.108Z,23.70
2019-01-15T05:30:58.151Z,23.40
2019-01-15T05:31:31.154Z,24.07
2019-01-15T05:32:04.294Z,23.60
2019-01-15T05:32:37.417Z,23.40
2019-01-15T05:33:10.514Z,24.05
2019-01-15T05:33:43.463Z,23.47
2019-01-15T05:34:16.491Z,24.00
2019-01-15T05:34:49.502Z,23.77
2019-01-15T05:35:22.758Z,23.45
2019-01-15T05:35:55.906Z,24.05
2019-01-15T05:36:28.974Z,23.65
2019-01-15T05:37:01.975Z,23.67
2019-01-15T05:37:35.178Z,23.77
2019-01-15T05:38:08.247Z,23.67
2019-01-15T05:38:41.238Z,23.75
2019-01-15T05:39:14.207Z,23.38
2019-01-15T05:39:47.270Z,23.80
2019-01-15T05:40:20.346Z,23.95
2019-01-15T05:40:53.234Z,24.10
2019-01-15T05:41:26.207Z,24.00
2019-01-15T05:41:59.359Z,23.85
2019-01-15T05:42:32.464Z,23.50
2019-01-15T05:43:05.557Z,24.00
2019-01-15T05:43:38.600Z,23.87
2019-01-15T05:44:11.797Z,24.32
2019-01-15T05:44:44.921Z,23.85
2019-01-15T05:45:23.554Z,23.30
2019-01-15T05:45:56.754Z,23.65
2019-01-15T05:46:29.933Z,23.95
2019-01-15T05:47:03.188Z,23.38
2019-01-15T05:47:36.536Z,23.95
2019-01-15T05:48:17.022Z,23.85
2019-01-15T05:48:50.158Z,24.05
2019-01-15T05:49:23.234Z,23.57
2019-01-15T05:49:56.252Z,24.23
2019-01-15T05:50:57.735Z,23.50
2019-01-15T05:51:41.044Z,23.70
2019-01-15T05:52:14.227Z,23.87
2019-01-15T05:52:47.271Z,23.83
2019-01-15T05:53:20.662Z,23.70
2019-01-15T05:53:55.364Z,23.57
2019-01-15T05:54:28.520Z,23.42
2019-01-15T05:55:01.637Z,23.80
2019-01-15T05:55:35.790Z,23.65
2019-01-15T05:56:09.562Z,23.70
2019-01-15T05:56:42.915Z,23.50
2019-01-15T05:57:16.840Z,22.80
2019-01-15T05:57:49.879Z,23.77
2019-01-15T05:58:22.984Z,23.73
2019-01-15T05:58:56.088Z,23.83
2019-01-15T05:59:29.128Z,23.65
2019-01-15T06:00:03.004Z,24.10
2019-01-15T06:00:36.146Z,23.95
2019-01-15T06:01:09.223Z,24.18
2019-01-15T06:01:42.306Z,23.75
2019-01-15T06:02:15.482Z,23.27
2019-01-15T06:02:48.556Z,23.85
2019-01-15T06:03:21.718Z,24.47
2019-01-15T06:03:54.832Z,23.80
2019-01-15T06:04:27.886Z,24.07
2019-01-15T06:05:04.142Z,24.18
2019-01-15T06:05:37.300Z,24.10
2019-01-15T06:06:10.466Z,24.63
2019-01-15T06:06:43.554Z,23.73
2019-01-15T06:07:18.190Z,23.98
2019-01-15T06:07:51.244Z,23.80
2019-01-15T06:08:24.326Z,24.00
2019-01-15T06:08:57.274Z,23.73
2019-01-15T06:09:30.396Z,24.10
2019-01-15T06:10:07.289Z,24.55
2019-01-15T06:10:40.486Z,24.05
2019-01-15T06:11:13.748Z,23.73
2019-01-15T06:11:46.827Z,23.73
2019-01-15T06:12:20.016Z,23.90
2019-01-15T06:12:52.996Z,23.95
2019-01-15T06:13:26.108Z,23.60
2019-01-15T06:13:59.314Z,24.15
2019-01-15T06:14:32.231Z,24.20
2019-01-15T06:15:07.817Z,23.18
2019-01-15T06:15:41.004Z,23.60
2019-01-15T06:16:14.062Z,23.50
2019-01-15T06:16:47.378Z,23.77
2019-01-15T06:17:20.552Z,24.12
2019-01-15T06:17:53.607Z,23.60
2019-01-15T06:18:26.804Z,23.62
2019-01-15T06:19:00.012Z,23.95
2019-01-15T06:19:33.245Z,24.02
2019-01-15T06:20:09.786Z,23.80
2019-01-15T06:20:43.174Z,23.90
2019-01-15T06:21:16.265Z,24.07
2019-01-15T06:21:49.360Z,24.25
2019-01-15T06:22:22.496Z,23.55
2019-01-15T06:22:55.416Z,23.67
2019-01-15T06:23:28.420Z,24.18
2019-01-15T06:24:01.610Z,24.10
2019-01-15T06:24:34.747Z,23.75
2019-01-15T06:25:08.553Z,23.18
2019-01-15T06:25:41.467Z,23.83
2019-01-15T06:26:14.650Z,23.30
2019-01-15T06:26:47.664Z,23.65
2019-01-15T06:27:20.800Z,24.15
2019-01-15T06:27:53.834Z,23.40
2019-01-15T06:28:27.274Z,23.10
2019-01-15T06:29:01.285Z,24.02
2019-01-15T06:29:34.350Z,23.67
2019-01-15T06:30:11.234Z,24.20
2019-01-15T06:30:44.422Z,23.65
2019-01-15T06:31:17.960Z,23.35
2019-01-15T06:31:51.125Z,23.87
2019-01-15T06:32:24.248Z,23.57
2019-01-15T06:32:57.310Z,23.45
2019-01-15T06:33:30.369Z,23.85
2019-01-15T06:34:03.505Z,23.30
2019-01-15T06:34:36.629Z,23.38
2019-01-15T06:35:09.879Z,23.35
2019-01-15T06:35:44.099Z,23.60
2019-01-15T06:36:17.218Z,22.93
2019-01-15T06:36:51.783Z,23.70
2019-01-15T06:37:24.820Z,23.75
2019-01-15T06:37:57.891Z,23.42
2019-01-15T06:38:30.835Z,23.57
2019-01-15T06:39:07.937Z,23.47
2019-01-15T06:39:41.087Z,23.40
2019-01-15T06:40:14.440Z,23.30
2019-01-15T06:40:47.604Z,23.40
2019-01-15T06:41:20.875Z,23.35
2019-01-15T06:41:54.112Z,23.60
2019-01-15T06:42:28.947Z,23.60
2019-01-15T06:43:03.769Z,23.20
2019-01-15T06:43:37.025Z,22.95
2019-01-15T06:44:10.095Z,23.65
2019-01-15T06:44:43.264Z,24.00
2019-01-15T06:45:19.290Z,23.83
2019-01-15T06:45:52.782Z,23.10
2019-01-15T06:46:25.921Z,23.52
2019-01-15T06:46:59.117Z,23.25
2019-01-15T06:47:32.220Z,23.40
2019-01-15T06:48:05.381Z,23.65
2019-01-15T06:48:38.485Z,23.00
2019-01-15T06:49:11.660Z,23.02
2019-01-15T06:49:44.762Z,23.02
2019-01-15T06:50:18.060Z,23.10
2019-01-15T06:50:51.262Z,23.02
2019-01-15T06:51:24.361Z,23.00
2019-01-15T06:51:57.721Z,23.50
2019-01-15T06:52:30.899Z,22.67
2019-01-15T06:53:03.961Z,23.30
2019-01-15T06:53:37.015Z,23.22
2019-01-15T06:54:10.155Z,22.98
2019-01-15T06:54:43.314Z,23.10
2019-01-15T06:55:17.825Z,22.87
2019-01-15T06:55:50.896Z,22.73
2019-01-15T06:56:23.889Z,23.15
2019-01-15T06:56:56.828Z,23.07
2019-01-15T06:57:29.865Z,22.95
2019-01-15T06:58:03.251Z,23.22
2019-01-15T06:58:36.353Z,22.70
2019-01-15T06:59:09.530Z,22.77
2019-01-15T06:59:42.473Z,23.15
2019-01-15T07:00:18.901Z,23.42
2019-01-15T07:00:51.950Z,22.70
2019-01-15T07:01:25.007Z,23.10
2019-01-15T07:01:58.135Z,23.67
2019-01-15T07:02:32.403Z,22.80
2019-01-15T07:03:05.537Z,23.67
2019-01-15T07:03:38.984Z,23.27
2019-01-15T07:04:12.838Z,23.90
2019-01-15T07:04:46.576Z,23.12
2019-01-15T07:05:23.347Z,23.05
2019-01-15T07:05:56.464Z,23.02
2019-01-15T07:06:29.608Z,23.22
2019-01-15T07:07:02.877Z,23.10
2019-01-15T07:07:36.021Z,22.87
2019-01-15T07:08:09.159Z,23.10
2019-01-15T07:08:42.127Z,23.42
2019-01-15T07:09:15.267Z,22.82
2019-01-15T07:09:49.257Z,22.62
2019-01-15T07:10:29.260Z,22.60